sensor_id;sensor_type;location;lat;lon;timestamp;pressure;altitude;pressure_sealevel;temperature;humidity
32298;BME280;18782;48.984;8.548;2022-08-06T00:00:04;100567.22;;;23.14;47.27
32298;BME280;18782;48.984;8.548;2022-08-06T00:02:38;100560.41;;;23.04;46.68
32298;BME280;18782;48.984;8.548;2022-08-06T00:05:08;100560.31;;;23.08;47.03
32298;BME280;18782;48.984;8.548;2022-08-06T00:07:52;100564.84;;;23.00;46.72
32298;BME280;18782;48.984;8.548;2022-08-06T00:10:24;100564.94;;;22.94;48.01
32298;BME280;18782;48.984;8.548;2022-08-06T00:12:57;100562.38;;;22.89;47.31
32298;BME280;18782;48.984;8.548;2022-08-06T00:15:31;100560.59;;;22.91;47.13
32298;BME280;18782;48.984;8.548;2022-08-06T00:18:19;100564.16;;;22.89;47.59
32298;BME280;18782;48.984;8.548;2022-08-06T00:20:49;100557.16;;;22.88;47.06
32298;BME280;18782;48.984;8.548;2022-08-06T00:23:18;100557.88;;;22.98;47.32
32298;BME280;18782;48.984;8.548;2022-08-06T00:25:50;100554.53;;;22.85;47.67
32298;BME280;18782;48.984;8.548;2022-08-06T00:28:21;100556.28;;;22.86;47.28
32298;BME280;18782;48.984;8.548;2022-08-06T00:30:56;100562.38;;;22.89;47.13
32298;BME280;18782;48.984;8.548;2022-08-06T00:33:26;100562.38;;;22.89;47.05
32298;BME280;18782;48.984;8.548;2022-08-06T00:36:15;100564.94;;;22.94;47.59
32298;BME280;18782;48.984;8.548;2022-08-06T00:38:43;100556.38;;;22.80;47.12
32298;BME280;18782;48.984;8.548;2022-08-06T00:41:13;100562.38;;;22.89;48.10
32298;BME280;18782;48.984;8.548;2022-08-06T00:43:44;100558.06;;;22.84;47.48
32298;BME280;18782;48.984;8.548;2022-08-06T00:46:14;100560.91;;;22.72;47.29
32298;BME280;18782;48.984;8.548;2022-08-06T00:48:42;100564.47;;;22.67;47.25
32298;BME280;18782;48.984;8.548;2022-08-06T00:51:20;100569.66;;;22.69;47.78
32298;BME280;18782;48.984;8.548;2022-08-06T00:53:48;100568.81;;;22.69;46.94
32298;BME280;18782;48.984;8.548;2022-08-06T00:56:23;100571.53;;;22.62;46.34
32298;BME280;18782;48.984;8.548;2022-08-06T00:58:56;100581.19;;;22.60;46.86
32298;BME280;18782;48.984;8.548;2022-08-06T01:01:29;100578.47;;;22.65;47.37
32298;BME280;18782;48.984;8.548;2022-08-06T01:04:14;100582.91;;;22.61;46.82
32298;BME280;18782;48.984;8.548;2022-08-06T01:06:42;100580.44;;;22.52;46.18
32298;BME280;18782;48.984;8.548;2022-08-06T01:09:24;100578.66;;;22.53;47.13
32298;BME280;18782;48.984;8.548;2022-08-06T01:11:51;100581.97;;;22.65;47.33
32298;BME280;18782;48.984;8.548;2022-08-06T01:14:27;100581.97;;;22.67;46.46
32298;BME280;18782;48.984;8.548;2022-08-06T01:17:08;100583.72;;;22.65;46.89
32298;BME280;18782;48.984;8.548;2022-08-06T01:19:58;100579.50;;;22.56;46.58
32298;BME280;18782;48.984;8.548;2022-08-06T01:23:06;100582.13;;;22.55;47.38
32298;BME280;18782;48.984;8.548;2022-08-06T01:25:58;100577.03;;;22.46;46.43
32298;BME280;18782;48.984;8.548;2022-08-06T01:28:33;100582.44;;;22.35;47.22
32298;BME280;18782;48.984;8.548;2022-08-06T01:31:08;100577.97;;;22.40;47.21
32298;BME280;18782;48.984;8.548;2022-08-06T01:33:40;100591.28;;;22.26;47.51
32298;BME280;18782;48.984;8.548;2022-08-06T01:36:17;100590.31;;;22.32;47.22
32298;BME280;18782;48.984;8.548;2022-08-06T01:38:55;100593.84;;;22.31;47.76
32298;BME280;18782;48.984;8.548;2022-08-06T01:41:33;100594.59;;;22.39;48.58
32298;BME280;18782;48.984;8.548;2022-08-06T01:44:29;100599.81;;;22.42;47.45
32298;BME280;18782;48.984;8.548;2022-08-06T01:47:01;100599.06;;;22.32;47.91
32298;BME280;18782;48.984;8.548;2022-08-06T01:49:45;100597.41;;;22.24;48.16
32298;BME280;18782;48.984;8.548;2022-08-06T01:52:31;100603.63;;;22.17;48.44
32298;BME280;18782;48.984;8.548;2022-08-06T01:55:00;100599.28;;;22.16;48.92
32298;BME280;18782;48.984;8.548;2022-08-06T01:57:31;100594.94;;;22.13;48.66
32298;BME280;18782;48.984;8.548;2022-08-06T02:00:22;100598.44;;;22.13;48.47
32298;BME280;18782;48.984;8.548;2022-08-06T02:02:58;100599.28;;;22.16;49.05
32298;BME280;18782;48.984;8.548;2022-08-06T02:05:29;100603.59;;;22.21;48.77
32298;BME280;18782;48.984;8.548;2022-08-06T02:08:13;100597.47;;;22.21;49.25
32298;BME280;18782;48.984;8.548;2022-08-06T02:11:03;100597.56;;;22.14;49.08
32298;BME280;18782;48.984;8.548;2022-08-06T02:13:52;100602.59;;;22.28;49.11
32298;BME280;18782;48.984;8.548;2022-08-06T02:16:25;100606.31;;;22.12;48.89
32298;BME280;18782;48.984;8.548;2022-08-06T02:18:58;100607.19;;;22.12;49.63
32298;BME280;18782;48.984;8.548;2022-08-06T02:21:35;100606.34;;;22.10;49.73
32298;BME280;18782;48.984;8.548;2022-08-06T02:24:06;100607.19;;;22.11;49.07
32298;BME280;18782;48.984;8.548;2022-08-06T02:26:37;100601.94;;;22.12;49.87
32298;BME280;18782;48.984;8.548;2022-08-06T02:29:11;100601.09;;;22.10;49.90
32298;BME280;18782;48.984;8.548;2022-08-06T02:31:43;100602.00;;;22.05;49.91
32298;BME280;18782;48.984;8.548;2022-08-06T02:34:18;100608.22;;;21.96;49.95
32298;BME280;18782;48.984;8.548;2022-08-06T02:36:58;100610.94;;;21.87;50.13
32298;BME280;18782;48.984;8.548;2022-08-06T02:39:31;100609.16;;;21.91;50.81
32298;BME280;18782;48.984;8.548;2022-08-06T02:42:20;100616.13;;;21.92;50.92
32298;BME280;18782;48.984;8.548;2022-08-06T02:44:55;100606.56;;;21.89;50.78
32298;BME280;18782;48.984;8.548;2022-08-06T02:47:30;100603.06;;;21.90;50.95
32298;BME280;18782;48.984;8.548;2022-08-06T02:50:21;100603.88;;;21.92;51.12
32298;BME280;18782;48.984;8.548;2022-08-06T02:52:56;100605.63;;;21.95;51.08
32298;BME280;18782;48.984;8.548;2022-08-06T02:55:33;100603.06;;;21.90;51.06
32298;BME280;18782;48.984;8.548;2022-08-06T02:58:08;100597.91;;;21.81;51.39
32298;BME280;18782;48.984;8.548;2022-08-06T03:00:42;100592.81;;;21.69;51.79
32298;BME280;18782;48.984;8.548;2022-08-06T03:03:16;100601.50;;;21.74;52.02
32298;BME280;18782;48.984;8.548;2022-08-06T03:06:03;100606.81;;;21.68;52.08
32298;BME280;18782;48.984;8.548;2022-08-06T03:08:33;100599.78;;;21.70;52.11
32298;BME280;18782;48.984;8.548;2022-08-06T03:11:03;100613.78;;;21.66;52.22
32298;BME280;18782;48.984;8.548;2022-08-06T03:13:33;100616.47;;;21.62;52.61
32298;BME280;18782;48.984;8.548;2022-08-06T03:16:03;100617.31;;;21.65;52.34
32298;BME280;18782;48.984;8.548;2022-08-06T03:18:51;100603.44;;;21.56;52.67
32298;BME280;18782;48.984;8.548;2022-08-06T03:21:41;100615.72;;;21.48;52.87
32298;BME280;18782;48.984;8.548;2022-08-06T03:24:21;100616.66;;;21.43;53.50
32298;BME280;18782;48.984;8.548;2022-08-06T03:26:53;100614.97;;;21.35;53.55
32298;BME280;18782;48.984;8.548;2022-08-06T03:29:24;100624.56;;;21.35;53.50
32298;BME280;18782;48.984;8.548;2022-08-06T03:31:53;100625.34;;;21.45;53.29
32298;BME280;18782;48.984;8.548;2022-08-06T03:34:40;100623.56;;;21.51;52.99
32298;BME280;18782;48.984;8.548;2022-08-06T03:37:10;100629.56;;;21.59;52.72
32298;BME280;18782;48.984;8.548;2022-08-06T03:39:42;100633.06;;;21.61;52.02
32298;BME280;18782;48.984;8.548;2022-08-06T03:42:19;100633.91;;;21.67;52.29
32298;BME280;18782;48.984;8.548;2022-08-06T03:44:58;100629.50;;;21.69;51.90
32298;BME280;18782;48.984;8.548;2022-08-06T03:47:29;100641.75;;;21.67;51.43
32298;BME280;18782;48.984;8.548;2022-08-06T03:50:22;100641.97;;;21.42;52.01
32298;BME280;18782;48.984;8.548;2022-08-06T03:52:52;100641.22;;;21.25;52.26
32298;BME280;18782;48.984;8.548;2022-08-06T03:55:24;100652.66;;;21.08;52.19
32298;BME280;18782;48.984;8.548;2022-08-06T03:57:56;100652.72;;;21.02;53.33
32298;BME280;18782;48.984;8.548;2022-08-06T04:00:25;100655.38;;;20.96;53.13
32298;BME280;18782;48.984;8.548;2022-08-06T04:02:56;100653.63;;;21.00;53.13
32298;BME280;18782;48.984;8.548;2022-08-06T04:05:31;100653.59;;;21.03;52.91
32298;BME280;18782;48.984;8.548;2022-08-06T04:08:03;100664.97;;;21.00;53.02
32298;BME280;18782;48.984;8.548;2022-08-06T04:10:33;100661.41;;;21.07;52.88
32298;BME280;18782;48.984;8.548;2022-08-06T04:13:05;100663.16;;;21.08;52.98
32298;BME280;18782;48.984;8.548;2022-08-06T04:15:54;100663.97;;;21.20;53.26
32298;BME280;18782;48.984;8.548;2022-08-06T04:18:24;100666.53;;;21.23;52.98
32298;BME280;18782;48.984;8.548;2022-08-06T04:21:04;100661.31;;;21.21;52.82
32298;BME280;18782;48.984;8.548;2022-08-06T04:23:52;100671.00;;;21.07;53.11
32298;BME280;18782;48.984;8.548;2022-08-06T04:26:24;100663.16;;;21.08;53.16
32298;BME280;18782;48.984;8.548;2022-08-06T04:28:55;100675.38;;;21.06;53.44
32298;BME280;18782;48.984;8.548;2022-08-06T04:31:25;100671.94;;;21.04;53.32
32298;BME280;18782;48.984;8.548;2022-08-06T04:34:19;100670.28;;;20.85;53.38
32298;BME280;18782;48.984;8.548;2022-08-06T04:36:56;100675.66;;;20.64;53.93
32298;BME280;18782;48.984;8.548;2022-08-06T04:39:28;100672.22;;;20.43;54.90
32298;BME280;18782;48.984;8.548;2022-08-06T04:42:15;100681.00;;;20.25;54.90
32298;BME280;18782;48.984;8.548;2022-08-06T04:44:45;100682.78;;;20.16;55.70
32298;BME280;18782;48.984;8.548;2022-08-06T04:47:27;100682.84;;;20.00;55.94
32298;BME280;18782;48.984;8.548;2022-08-06T04:50:13;100682.75;;;20.19;55.87
32298;BME280;18782;48.984;8.548;2022-08-06T04:52:50;100682.75;;;20.31;56.15
32298;BME280;18782;48.984;8.548;2022-08-06T04:55:19;100687.13;;;20.17;55.94
32298;BME280;18782;48.984;8.548;2022-08-06T04:58:01;100698.47;;;20.13;56.62
32298;BME280;18782;48.984;8.548;2022-08-06T05:00:38;100689.78;;;20.07;56.40
32298;BME280;18782;48.984;8.548;2022-08-06T05:03:26;100697.63;;;20.01;56.41
32298;BME280;18782;48.984;8.548;2022-08-06T05:06:18;100701.97;;;19.98;56.98
32298;BME280;18782;48.984;8.548;2022-08-06T05:08:53;100703.72;;;19.99;57.15
32298;BME280;18782;48.984;8.548;2022-08-06T05:11:24;100709.81;;;20.12;56.59
32298;BME280;18782;48.984;8.548;2022-08-06T05:13:57;100716.78;;;20.02;57.24
32298;BME280;18782;48.984;8.548;2022-08-06T05:16:27;100720.28;;;19.98;56.92
32298;BME280;18782;48.984;8.548;2022-08-06T05:18:58;100729.84;;;20.06;57.27
32298;BME280;18782;48.984;8.548;2022-08-06T05:21:47;100726.38;;;20.01;56.46
32298;BME280;18782;48.984;8.548;2022-08-06T05:24:37;100723.78;;;19.88;57.32
32298;BME280;18782;48.984;8.548;2022-08-06T05:27:25;100729.91;;;19.79;57.84
32298;BME280;18782;48.984;8.548;2022-08-06T05:30:13;100724.56;;;20.25;57.12
32298;BME280;18782;48.984;8.548;2022-08-06T05:32:41;100728.03;;;20.36;56.73
32298;BME280;18782;48.984;8.548;2022-08-06T05:35:11;100729.75;;;20.43;56.26
32298;BME280;18782;48.984;8.548;2022-08-06T05:37:43;100729.75;;;20.39;56.49
32298;BME280;18782;48.984;8.548;2022-08-06T05:40:31;100746.31;;;20.44;56.19
32298;BME280;18782;48.984;8.548;2022-08-06T05:43:21;100749.84;;;20.37;56.26
32298;BME280;18782;48.984;8.548;2022-08-06T05:45:55;100749.81;;;20.33;56.50
32298;BME280;18782;48.984;8.548;2022-08-06T05:48:24;100744.59;;;20.38;56.45
32298;BME280;18782;48.984;8.548;2022-08-06T05:50:58;100740.22;;;20.40;56.16
32298;BME280;18782;48.984;8.548;2022-08-06T05:53:34;100739.28;;;20.66;55.71
32298;BME280;18782;48.984;8.548;2022-08-06T05:56:28;100741.00;;;20.73;54.94
32298;BME280;18782;48.984;8.548;2022-08-06T05:59:07;100747.22;;;20.41;55.23
32298;BME280;18782;48.984;8.548;2022-08-06T06:01:55;100757.66;;;20.41;56.39
32298;BME280;18782;48.984;8.548;2022-08-06T06:04:25;100764.63;;;20.39;56.59
32298;BME280;18782;48.984;8.548;2022-08-06T06:07:00;100766.34;;;20.40;56.63
32298;BME280;18782;48.984;8.548;2022-08-06T06:09:30;100761.16;;;20.34;56.10
32298;BME280;18782;48.984;8.548;2022-08-06T06:12:21;100763.75;;;20.52;56.54
32298;BME280;18782;48.984;8.548;2022-08-06T06:14:59;100769.88;;;20.48;56.47
32298;BME280;18782;48.984;8.548;2022-08-06T06:17:58;100770.69;;;20.64;55.89
32298;BME280;18782;48.984;8.548;2022-08-06T06:20:45;100778.53;;;20.69;55.77
32298;BME280;18782;48.984;8.548;2022-08-06T06:23:41;100775.88;;;20.67;55.86
32298;BME280;18782;48.984;8.548;2022-08-06T06:26:17;100782.88;;;20.70;56.06
32298;BME280;18782;48.984;8.548;2022-08-06T06:29:06;100785.50;;;20.73;56.02
32298;BME280;18782;48.984;8.548;2022-08-06T06:31:49;100788.13;;;20.65;55.72
32298;BME280;18782;48.984;8.548;2022-08-06T06:34:50;100775.06;;;20.61;56.09
32298;BME280;18782;48.984;8.548;2022-08-06T06:37:24;100783.78;;;20.59;56.40
32298;BME280;18782;48.984;8.548;2022-08-06T06:40:12;100782.88;;;20.68;56.89
32298;BME280;18782;48.984;8.548;2022-08-06T06:42:51;100784.56;;;20.81;58.08
32298;BME280;18782;48.984;8.548;2022-08-06T06:45:30;100788.06;;;20.76;55.95
32298;BME280;18782;48.984;8.548;2022-08-06T06:48:21;100790.72;;;20.73;56.08
32298;BME280;18782;48.984;8.548;2022-08-06T06:50:54;100790.66;;;20.82;56.23
32298;BME280;18782;48.984;8.548;2022-08-06T06:53:28;100790.66;;;20.85;56.04
32298;BME280;18782;48.984;8.548;2022-08-06T06:56:20;100791.50;;;20.90;56.72
32298;BME280;18782;48.984;8.548;2022-08-06T06:59:01;100781.88;;;21.01;56.24
32298;BME280;18782;48.984;8.548;2022-08-06T07:01:40;100782.72;;;21.09;56.54
32298;BME280;18782;48.984;8.548;2022-08-06T07:04:21;100782.63;;;21.22;55.75
32298;BME280;18782;48.984;8.548;2022-08-06T07:06:55;100802.69;;;21.26;54.86
32298;BME280;18782;48.984;8.548;2022-08-06T07:09:35;100790.44;;;21.34;54.91
32298;BME280;18782;48.984;8.548;2022-08-06T07:12:07;100788.75;;;21.21;53.02
32298;BME280;18782;48.984;8.548;2022-08-06T07:14:47;100794.81;;;21.27;53.99
32298;BME280;18782;48.984;8.548;2022-08-06T07:17:29;100790.41;;;21.37;53.89
32298;BME280;18782;48.984;8.548;2022-08-06T07:20:18;100798.31;;;21.23;52.40
32298;BME280;18782;48.984;8.548;2022-08-06T07:22:55;100794.81;;;21.24;52.40
32298;BME280;18782;48.984;8.548;2022-08-06T07:25:47;100796.56;;;21.24;52.27
32298;BME280;18782;48.984;8.548;2022-08-06T07:28:22;100786.97;;;21.32;51.96
32298;BME280;18782;48.984;8.548;2022-08-06T07:30:54;100793.94;;;21.36;51.92
32298;BME280;18782;48.984;8.548;2022-08-06T07:33:32;100790.47;;;21.19;50.61
32298;BME280;18782;48.984;8.548;2022-08-06T07:36:23;100788.72;;;21.24;51.42
32298;BME280;18782;48.984;8.548;2022-08-06T07:38:56;100799.19;;;21.24;49.74
32298;BME280;18782;48.984;8.548;2022-08-06T07:41:26;100790.47;;;21.22;49.88
32298;BME280;18782;48.984;8.548;2022-08-06T07:44:15;100797.44;;;21.26;48.83
32298;BME280;18782;48.984;8.548;2022-08-06T07:46:45;100799.13;;;21.39;48.96
32298;BME280;18782;48.984;8.548;2022-08-06T07:49:20;100806.03;;;21.52;48.51
32298;BME280;18782;48.984;8.548;2022-08-06T07:52:09;100788.56;;;21.54;47.15
32298;BME280;18782;48.984;8.548;2022-08-06T07:54:44;100784.19;;;21.53;46.66
32298;BME280;18782;48.984;8.548;2022-08-06T07:57:12;100788.47;;;21.67;47.41
32298;BME280;18782;48.984;8.548;2022-08-06T07:59:46;100792.91;;;21.57;46.87
32298;BME280;18782;48.984;8.548;2022-08-06T08:02:21;100785.03;;;21.61;46.09
32298;BME280;18782;48.984;8.548;2022-08-06T08:04:57;100782.38;;;21.63;46.30
32298;BME280;18782;48.984;8.548;2022-08-06T08:07:44;100781.47;;;21.69;46.35
32298;BME280;18782;48.984;8.548;2022-08-06T08:10:23;100799.72;;;21.79;46.43
32298;BME280;18782;48.984;8.548;2022-08-06T08:12:54;100787.44;;;21.84;47.61
32298;BME280;18782;48.984;8.548;2022-08-06T08:15:28;100794.25;;;22.05;47.59
32298;BME280;18782;48.984;8.548;2022-08-06T08:17:57;100790.69;;;22.16;45.20
32298;BME280;18782;48.984;8.548;2022-08-06T08:20:29;100787.06;;;22.27;45.19
32298;BME280;18782;48.984;8.548;2022-08-06T08:23:04;100787.00;;;22.33;44.94
32298;BME280;18782;48.984;8.548;2022-08-06T08:25:33;100778.28;;;22.34;45.94
32298;BME280;18782;48.984;8.548;2022-08-06T08:28:07;100783.38;;;22.47;43.98
32298;BME280;18782;48.984;8.548;2022-08-06T08:30:39;100780.72;;;22.48;44.32
32298;BME280;18782;48.984;8.548;2022-08-06T08:33:07;100786.78;;;22.56;44.96
32298;BME280;18782;48.984;8.548;2022-08-06T08:35:45;100778.97;;;22.52;43.26
32298;BME280;18782;48.984;8.548;2022-08-06T08:38:27;100788.44;;;22.63;44.25
32298;BME280;18782;48.984;8.548;2022-08-06T08:40:56;100784.81;;;22.74;43.81
32298;BME280;18782;48.984;8.548;2022-08-06T08:43:29;100778.53;;;22.87;43.97
32298;BME280;18782;48.984;8.548;2022-08-06T08:46:18;100778.50;;;22.90;42.82
32298;BME280;18782;48.984;8.548;2022-08-06T08:49:00;100787.28;;;22.89;43.53
32298;BME280;18782;48.984;8.548;2022-08-06T08:51:38;100771.50;;;22.92;42.61
32298;BME280;18782;48.984;8.548;2022-08-06T08:54:13;100776.50;;;23.10;43.67
32298;BME280;18782;48.984;8.548;2022-08-06T08:56:49;100779.03;;;23.16;43.85
32298;BME280;18782;48.984;8.548;2022-08-06T08:59:37;100785.00;;;23.28;42.84
32298;BME280;18782;48.984;8.548;2022-08-06T09:02:27;100787.84;;;23.14;41.92
32298;BME280;18782;48.984;8.548;2022-08-06T09:04:56;100772.00;;;23.17;42.63
32298;BME280;18782;48.984;8.548;2022-08-06T09:07:27;100771.03;;;23.26;43.03
32298;BME280;18782;48.984;8.548;2022-08-06T09:10:04;100784.88;;;23.37;42.59
32298;BME280;18782;48.984;8.548;2022-08-06T09:12:32;100779.44;;;23.49;43.47
32298;BME280;18782;48.984;8.548;2022-08-06T09:15:11;100779.22;;;23.64;41.28
32298;BME280;18782;48.984;8.548;2022-08-06T09:17:42;100784.31;;;23.74;40.77
32298;BME280;18782;48.984;8.548;2022-08-06T09:20:30;100777.31;;;23.76;41.25
32298;BME280;18782;48.984;8.548;2022-08-06T09:23:00;100782.31;;;23.89;40.70
32298;BME280;18782;48.984;8.548;2022-08-06T09:28:30;100778.53;;;24.04;40.84
32298;BME280;18782;48.984;8.548;2022-08-06T09:31:05;100785.47;;;24.10;38.72
32298;BME280;18782;48.984;8.548;2022-08-06T09:33:54;100784.56;;;24.11;38.95
32298;BME280;18782;48.984;8.548;2022-08-06T09:36:43;100773.28;;;24.04;40.19
32298;BME280;18782;48.984;8.548;2022-08-06T09:39:13;100766.22;;;24.08;39.18
32298;BME280;18782;48.984;8.548;2022-08-06T09:41:50;100769.44;;;24.24;39.18
32298;BME280;18782;48.984;8.548;2022-08-06T09:44:19;100779.75;;;24.36;39.09
32298;BME280;18782;48.984;8.548;2022-08-06T09:47:07;100777.00;;;24.42;38.50
32298;BME280;18782;48.984;8.548;2022-08-06T09:49:47;100777.56;;;24.58;38.73
32298;BME280;18782;48.984;8.548;2022-08-06T09:52:26;100774.16;;;24.54;37.20
32298;BME280;18782;48.984;8.548;2022-08-06T09:54:55;100772.22;;;24.62;38.37
32298;BME280;18782;48.984;8.548;2022-08-06T09:57:28;100772.16;;;24.64;37.92
32298;BME280;18782;48.984;8.548;2022-08-06T10:00:08;100778.06;;;24.77;37.50
32298;BME280;18782;48.984;8.548;2022-08-06T10:02:40;100769.97;;;24.86;37.74
32298;BME280;18782;48.984;8.548;2022-08-06T10:05:17;100771.75;;;24.84;37.43
32298;BME280;18782;48.984;8.548;2022-08-06T10:07:47;100765.38;;;24.95;36.29
32298;BME280;18782;48.984;8.548;2022-08-06T10:10:38;100767.81;;;25.06;36.95
32298;BME280;18782;48.984;8.548;2022-08-06T10:13:16;100770.56;;;24.98;35.18
32298;BME280;18782;48.984;8.548;2022-08-06T10:15:46;100767.88;;;25.00;37.25
32298;BME280;18782;48.984;8.548;2022-08-06T10:18:38;100769.31;;;25.18;37.13
32298;BME280;18782;48.984;8.548;2022-08-06T10:21:25;100761.03;;;25.33;35.64
32298;BME280;18782;48.984;8.548;2022-08-06T10:24:08;100761.03;;;25.33;35.43
32298;BME280;18782;48.984;8.548;2022-08-06T10:26:40;100773.72;;;25.55;36.21
32298;BME280;18782;48.984;8.548;2022-08-06T10:29:11;100770.72;;;25.68;35.75
32298;BME280;18782;48.984;8.548;2022-08-06T10:31:40;100772.25;;;25.80;34.48
32298;BME280;18782;48.984;8.548;2022-08-06T10:34:10;100765.13;;;25.82;34.04
32298;BME280;18782;48.984;8.548;2022-08-06T10:36:45;100767.97;;;25.73;33.60
32298;BME280;18782;48.984;8.548;2022-08-06T10:39:16;100763.94;;;25.60;33.95
32298;BME280;18782;48.984;8.548;2022-08-06T10:42:09;100757.69;;;25.62;33.85
32298;BME280;18782;48.984;8.548;2022-08-06T10:44:48;100753.00;;;25.73;35.04
32298;BME280;18782;48.984;8.548;2022-08-06T10:47:17;100753.63;;;25.86;33.46
32298;BME280;18782;48.984;8.548;2022-08-06T10:50:06;100758.69;;;25.94;33.85
32298;BME280;18782;48.984;8.548;2022-08-06T10:52:54;100758.03;;;26.18;33.81
32298;BME280;18782;48.984;8.548;2022-08-06T10:55:22;100748.88;;;26.32;32.90
32298;BME280;18782;48.984;8.548;2022-08-06T10:58:05;100746.25;;;26.32;34.07
32298;BME280;18782;48.984;8.548;2022-08-06T11:00:33;100746.84;;;26.43;32.89
32298;BME280;18782;48.984;8.548;2022-08-06T11:03:13;100737.69;;;26.54;32.40
32298;BME280;18782;48.984;8.548;2022-08-06T11:05:47;100746.84;;;26.43;31.85
32298;BME280;18782;48.984;8.548;2022-08-06T11:08:38;100743.78;;;26.58;34.53
32298;BME280;18782;48.984;8.548;2022-08-06T11:11:43;100740.97;;;26.92;32.18
32298;BME280;18782;48.984;8.548;2022-08-06T11:14:35;100746.00;;;27.29;31.18
32298;BME280;18782;48.984;8.548;2022-08-06T11:17:05;100740.47;;;27.11;30.74
32298;BME280;18782;48.984;8.548;2022-08-06T11:19:39;100734.84;;;27.20;31.32
32298;BME280;18782;48.984;8.548;2022-08-06T11:22:33;100734.44;;;27.60;31.71
32298;BME280;18782;48.984;8.548;2022-08-06T11:25:02;100719.63;;;27.82;31.31
32298;BME280;18782;48.984;8.548;2022-08-06T11:27:51;100730.63;;;28.20;31.36
32298;BME280;18782;48.984;8.548;2022-08-06T11:30:36;100727.78;;;28.50;30.54
32298;BME280;18782;48.984;8.548;2022-08-06T11:33:05;100724.78;;;28.82;29.34
32298;BME280;18782;48.984;8.548;2022-08-06T11:35:43;100732.97;;;29.00;28.89
32298;BME280;18782;48.984;8.548;2022-08-06T11:38:56;100729.41;;;29.01;27.84
32298;BME280;18782;48.984;8.548;2022-08-06T11:41:43;100719.66;;;29.23;28.77
32298;BME280;18782;48.984;8.548;2022-08-06T11:44:24;100714.56;;;29.39;27.40
32298;BME280;18782;48.984;8.548;2022-08-06T11:47:13;100709.50;;;28.89;27.69
32298;BME280;18782;48.984;8.548;2022-08-06T11:49:48;100708.00;;;29.27;28.33
32298;BME280;18782;48.984;8.548;2022-08-06T11:52:42;100700.81;;;29.73;27.55
32298;BME280;18782;48.984;8.548;2022-08-06T11:55:12;100703.31;;;30.17;27.39
32298;BME280;18782;48.984;8.548;2022-08-06T11:58:20;100695.38;;;29.97;26.25
32298;BME280;18782;48.984;8.548;2022-08-06T12:00:56;100684.25;;;30.28;26.08
32298;BME280;18782;48.984;8.548;2022-08-06T12:03:39;100693.25;;;30.63;26.46
32298;BME280;18782;48.984;8.548;2022-08-06T12:06:19;100683.78;;;30.38;25.75
32298;BME280;18782;48.984;8.548;2022-08-06T12:09:06;100687.44;;;30.36;25.96
32298;BME280;18782;48.984;8.548;2022-08-06T12:11:40;100674.63;;;30.25;26.18
32298;BME280;18782;48.984;8.548;2022-08-06T12:14:38;100682.22;;;30.14;26.12
32298;BME280;18782;48.984;8.548;2022-08-06T12:17:15;100688.44;;;30.52;25.81
32298;BME280;18782;48.984;8.548;2022-08-06T12:19:46;100680.25;;;30.95;24.96
32298;BME280;18782;48.984;8.548;2022-08-06T12:22:29;100684.50;;;31.16;25.16
32298;BME280;18782;48.984;8.548;2022-08-06T12:25:00;100673.00;;;31.69;24.48
32298;BME280;18782;48.984;8.548;2022-08-06T12:27:38;100672.94;;;31.88;24.50
32298;BME280;18782;48.984;8.548;2022-08-06T12:30:17;100658.91;;;32.02;24.19
32298;BME280;18782;48.984;8.548;2022-08-06T12:33:04;100657.91;;;32.69;24.02
32298;BME280;18782;48.984;8.548;2022-08-06T12:35:50;100658.31;;;32.77;23.46
32298;BME280;18782;48.984;8.548;2022-08-06T12:38:18;100641.09;;;32.98;22.38
32298;BME280;18782;48.984;8.548;2022-08-06T12:40:55;100646.28;;;32.38;22.96
32298;BME280;18782;48.984;8.548;2022-08-06T12:43:23;100641.09;;;32.98;22.56
32298;BME280;18782;48.984;8.548;2022-08-06T12:46:11;100634.66;;;32.55;22.40
32298;BME280;18782;48.984;8.548;2022-08-06T12:48:48;100633.97;;;33.29;21.66
32298;BME280;18782;48.984;8.548;2022-08-06T12:51:18;100641.66;;;34.08;22.12
32298;BME280;18782;48.984;8.548;2022-08-06T12:53:55;100633.50;;;34.67;20.36
32298;BME280;18782;48.984;8.548;2022-08-06T12:56:25;100634.25;;;35.23;20.17
32298;BME280;18782;48.984;8.548;2022-08-06T12:58:59;100642.91;;;35.92;19.89
32298;BME280;18782;48.984;8.548;2022-08-06T13:01:30;100626.38;;;36.73;19.13
32298;BME280;18782;48.984;8.548;2022-08-06T13:04:20;100632.50;;;37.34;18.38
32298;BME280;18782;48.984;8.548;2022-08-06T13:06:59;100632.03;;;37.86;17.48
32298;BME280;18782;48.984;8.548;2022-08-06T13:09:28;100632.63;;;37.90;17.55
32298;BME280;18782;48.984;8.548;2022-08-06T13:12:12;100632.88;;;38.32;17.36
32298;BME280;18782;48.984;8.548;2022-08-06T13:14:56;100621.06;;;38.34;17.01
32298;BME280;18782;48.984;8.548;2022-08-06T13:18:00;100614.28;;;38.95;16.93
32298;BME280;18782;48.984;8.548;2022-08-06T13:20:36;100613.56;;;39.97;15.92
32298;BME280;18782;48.984;8.548;2022-08-06T13:23:05;100625.59;;;40.24;15.09
32298;BME280;18782;48.984;8.548;2022-08-06T13:25:41;100617.59;;;39.82;15.34
32298;BME280;18782;48.984;8.548;2022-08-06T13:28:19;100614.38;;;40.78;14.39
32298;BME280;18782;48.984;8.548;2022-08-06T13:30:55;100619.22;;;41.13;14.98
32298;BME280;18782;48.984;8.548;2022-08-06T13:33:27;100606.16;;;41.75;14.57
32298;BME280;18782;48.984;8.548;2022-08-06T13:36:04;100604.50;;;42.74;13.30
32298;BME280;18782;48.984;8.548;2022-08-06T13:38:35;100607.69;;;43.23;12.62
32298;BME280;18782;48.984;8.548;2022-08-06T13:41:08;100596.41;;;44.31;12.37
32298;BME280;18782;48.984;8.548;2022-08-06T13:43:40;100601.19;;;44.37;12.22
32298;BME280;18782;48.984;8.548;2022-08-06T13:46:23;100596.88;;;44.93;11.76
32298;BME280;18782;48.984;8.548;2022-08-06T13:48:56;100589.41;;;45.27;11.61